Time;durP1;ratioP1;P1;durP2;ratioP2;P2;SDS_P1;SDS_P2;PMS_P1;PMS_P2;Temp;Humidity;BMP_temperature;BMP_pressure;BME280_temperature;BME280_humidity;BME280_pressure;Samples;Min_cycle;Max_cycle;Signal;HPM_P1;HPM_P2
2023/01/31 00:02:08;;;;;;;9.75;3.67;;;;;;;;;;5051602;28;20813;-45
2023/01/31 00:04:34;;;;;;;17.87;3.93;;;;;;;;;;5048106;28;20277;-44
2023/01/31 00:07:00;;;;;;;22.37;4.23;;;;;;;;;;5047320;28;20798;-45
2023/01/31 00:09:26;;;;;;;16.87;5.90;;;;;;;;;;5042056;28;20809;-46
2023/01/31 00:11:52;;;;;;;12.23;3.53;;;;;;;;;;5047046;28;20402;-47
2023/01/31 00:14:19;;;;;;;15.60;3.45;;;;;;;;;;5044302;28;20404;-48
2023/01/31 00:16:45;;;;;;;21.15;5.40;;;;;;;;;;5025380;28;20210;-46
2023/01/31 00:19:11;;;;;;;22.90;4.53;;;;;;;;;;5044241;28;20179;-46
2023/01/31 00:21:40;;;;;;;20.93;4.40;;;;;;;;;;5047371;28;20175;-45
2023/01/31 00:24:06;;;;;;;26.50;5.35;;;;;;;;;;5044165;28;20484;-45
2023/01/31 00:26:33;;;;;;;16.10;4.60;;;;;;;;;;5044756;28;20290;-45
2023/01/31 00:29:00;;;;;;;24.40;5.03;;;;;;;;;;5048684;28;20466;-45
2023/01/31 00:31:27;;;;;;;15.40;4.45;;;;;;;;;;5046911;28;20182;-44
2023/01/31 00:33:53;;;;;;;27.33;4.80;;;;;;;;;;5043722;28;20182;-45
2023/01/31 00:36:24;;;;;;;10.75;3.75;;;;;;;;;;5043469;28;20685;-45
2023/01/31 00:38:51;;;;;;;23.00;5.30;;;;;;;;;;5043942;28;20274;-45
2023/01/31 00:41:17;;;;;;;21.63;5.45;;;;;;;;;;5051934;28;20232;-45
2023/01/31 00:43:43;;;;;;;17.40;4.80;;;;;;;;;;5043881;28;20215;-46
2023/01/31 00:46:09;;;;;;;18.10;4.33;;;;;;;;;;5047379;28;20242;-46
2023/01/31 00:48:35;;;;;;;19.42;5.10;;;;;;;;;;5047191;28;20413;-47
2023/01/31 00:51:01;;;;;;;15.23;5.40;;;;;;;;;;5043344;28;20663;-46
2023/01/31 00:53:27;;;;;;;23.63;4.70;;;;;;;;;;5043488;28;20787;-46
2023/01/31 00:55:54;;;;;;;21.97;6.33;;;;;;;;;;5044250;28;20467;-44
2023/01/31 00:58:20;;;;;;;16.35;4.72;;;;;;;;;;5025655;28;20478;-43
2023/01/31 01:00:47;;;;;;;18.37;5.60;;;;;;;;;;5043353;28;20171;-41
2023/01/31 01:03:13;;;;;;;28.23;5.10;;;;;;;;;;5047035;28;20435;-45
2023/01/31 01:05:39;;;;;;;24.80;4.68;;;;;;;;;;5039786;28;20237;-45
2023/01/31 01:08:05;;;;;;;15.83;4.90;;;;;;;;;;5040185;28;20199;-44
2023/01/31 01:10:31;;;;;;;14.20;4.85;;;;;;;;;;5047008;28;20556;-44
2023/01/31 01:12:57;;;;;;;28.63;5.35;;;;;;;;;;5051622;28;20210;-46
2023/01/31 01:15:23;;;;;;;26.65;5.32;;;;;;;;;;5025254;28;20199;-46
2023/01/31 01:17:49;;;;;;;11.30;4.20;;;;;;;;;;5043298;28;20186;-44
2023/01/31 01:20:16;;;;;;;14.30;4.65;;;;;;;;;;5051591;28;20570;-44
2023/01/31 01:22:41;;;;;;;16.80;4.80;;;;;;;;;;5043052;28;20241;-45
2023/01/31 01:25:08;;;;;;;25.50;4.47;;;;;;;;;;5047146;28;20199;-45
2023/01/31 01:27:34;;;;;;;18.25;4.72;;;;;;;;;;5039104;28;20426;-44
2023/01/31 01:30:00;;;;;;;18.03;4.60;;;;;;;;;;5043047;28;20690;-47
2023/01/31 01:32:27;;;;;;;27.55;6.32;;;;;;;;;;5046144;28;20394;-43
2023/01/31 01:34:53;;;;;;;21.23;5.30;;;;;;;;;;5042880;28;20178;-46
2023/01/31 01:37:19;;;;;;;19.50;5.20;;;;;;;;;;5037500;28;20180;-47
2023/01/31 01:39:48;;;;;;;18.03;5.63;;;;;;;;;;5040481;28;20446;-45
2023/01/31 01:42:33;;;;;;;23.90;5.50;;;;;;;;;;5046218;28;20931;-42
2023/01/31 01:45:01;;;;;;;12.13;4.38;;;;;;;;;;5049968;28;20601;-42
2023/01/31 01:47:34;;;;;;;13.45;4.70;;;;;;;;;;5051336;28;20186;-42
2023/01/31 01:50:07;;;;;;;18.73;5.85;;;;;;;;;;5039807;28;20204;-42
2023/01/31 01:52:36;;;;;;;18.50;3.92;;;;;;;;;;5047111;28;20229;-42
2023/01/31 01:55:06;;;;;;;13.95;4.93;;;;;;;;;;5050726;28;20167;-46
2023/01/31 01:57:37;;;;;;;23.88;4.85;;;;;;;;;;5050700;28;20191;-48
2023/01/31 02:00:09;;;;;;;14.48;5.25;;;;;;;;;;5051479;28;20685;-44
2023/01/31 02:02:36;;;;;;;27.42;5.00;;;;;;;;;;5054513;28;20578;-45
2023/01/31 02:05:02;;;;;;;18.83;4.60;;;;;;;;;;5037685;28;20175;-44
2023/01/31 02:07:28;;;;;;;12.55;3.80;;;;;;;;;;5047249;28;20187;-47
2023/01/31 02:10:15;;;;;;;13.00;4.90;;;;;;;;;;5039737;28;20245;-46
2023/01/31 02:12:41;;;;;;;19.42;4.75;;;;;;;;;;5054836;28;20185;-46
2023/01/31 02:15:07;;;;;;;23.55;5.70;;;;;;;;;;5046035;28;20282;-45
2023/01/31 02:17:34;;;;;;;16.90;4.82;;;;;;;;;;5046509;28;20658;-46
2023/01/31 02:20:00;;;;;;;25.35;5.40;;;;;;;;;;5046289;28;20175;-46
2023/01/31 02:22:26;;;;;;;11.60;3.97;;;;;;;;;;5046354;28;20233;-46
2023/01/31 02:25:10;;;;;;;13.50;3.50;;;;;;;;;;5045536;28;20217;-46
2023/01/31 02:27:39;;;;;;;17.55;4.45;;;;;;;;;;5046524;28;20405;-47
2023/01/31 02:30:17;;;;;;;19.05;3.80;;;;;;;;;;5050702;28;20222;-48
2023/01/31 02:32:57;;;;;;;17.92;5.05;;;;;;;;;;5033098;28;20225;-47
2023/01/31 02:35:36;;;;;;;15.88;4.82;;;;;;;;;;5042511;28;20203;-46
2023/01/31 02:38:11;;;;;;;10.35;4.47;;;;;;;;;;5050856;28;20694;-47
2023/01/31 02:40:40;;;;;;;16.80;4.43;;;;;;;;;;5050608;28;20536;-48
2023/01/31 02:43:13;;;;;;;16.13;4.00;;;;;;;;;;5036340;28;20179;-46
2023/01/31 02:45:53;;;;;;;13.35;4.80;;;;;;;;;;5045756;28;20215;-46
2023/01/31 02:48:25;;;;;;;11.00;3.75;;;;;;;;;;5030420;28;20766;-46
2023/01/31 02:50:51;;;;;;;18.65;4.57;;;;;;;;;;5045689;28;20201;-47
2023/01/31 02:53:22;;;;;;;10.73;4.60;;;;;;;;;;5046006;28;20670;-46
2023/01/31 02:56:18;;;;;;;11.20;3.67;;;;;;;;;;5051989;28;20981;-45
2023/01/31 02:58:56;;;;;;;11.68;3.63;;;;;;;;;;5045679;28;20261;-48
2023/01/31 03:01:24;;;;;;;11.13;4.10;;;;;;;;;;5047964;28;20237;-48
2023/01/31 03:03:51;;;;;;;17.83;4.45;;;;;;;;;;5051991;28;20692;-47
2023/01/31 03:06:23;;;;;;;13.35;4.20;;;;;;;;;;5048039;28;20291;-46
2023/01/31 03:09:07;;;;;;;14.57;3.70;;;;;;;;;;5050156;28;20202;-47
2023/01/31 03:11:42;;;;;;;16.13;3.55;;;;;;;;;;5049054;28;20233;-44
2023/01/31 03:14:27;;;;;;;14.77;3.10;;;;;;;;;;5045836;28;20183;-43
2023/01/31 03:19:46;;;;;;;14.60;3.92;;;;;;;;;;5053456;28;20193;-43
2023/01/31 03:22:15;;;;;;;10.70;3.50;;;;;;;;;;5046393;28;20175;-44
2023/01/31 03:24:43;;;;;;;7.78;2.97;;;;;;;;;;5036880;28;20336;-47
2023/01/31 03:27:10;;;;;;;14.68;3.40;;;;;;;;;;5048936;28;20628;-46
2023/01/31 03:29:37;;;;;;;21.77;3.80;;;;;;;;;;5023862;28;20207;-47
2023/01/31 03:32:10;;;;;;;14.82;3.75;;;;;;;;;;5053303;28;20528;-46
2023/01/31 03:34:37;;;;;;;7.40;3.58;;;;;;;;;;5052131;28;20228;-48
2023/01/31 03:37:08;;;;;;;18.35;3.92;;;;;;;;;;5053510;28;20206;-47
2023/01/31 03:39:34;;;;;;;10.35;3.40;;;;;;;;;;5053275;28;20170;-47
2023/01/31 03:42:06;;;;;;;12.30;3.27;;;;;;;;;;5053311;28;20167;-48
2023/01/31 03:44:35;;;;;;;10.02;3.58;;;;;;;;;;5053008;28;20401;-46
2023/01/31 03:47:19;;;;;;;18.98;4.28;;;;;;;;;;5053182;28;20201;-46
2023/01/31 03:49:46;;;;;;;17.92;5.35;;;;;;;;;;5053035;28;20218;-46
2023/01/31 03:52:15;;;;;;;15.43;3.95;;;;;;;;;;5052892;28;20171;-45
2023/01/31 03:54:45;;;;;;;16.10;4.18;;;;;;;;;;5053035;28;20179;-46
2023/01/31 03:57:10;;;;;;;16.15;3.80;;;;;;;;;;5052763;28;20195;-46
2023/01/31 03:59:39;;;;;;;14.27;3.90;;;;;;;;;;5053169;28;20534;-48
2023/01/31 04:02:07;;;;;;;13.70;3.08;;;;;;;;;;5052812;28;20402;-47
2023/01/31 04:04:53;;;;;;;9.75;2.88;;;;;;;;;;5052500;28;20668;-46
2023/01/31 04:07:19;;;;;;;23.17;3.30;;;;;;;;;;5052764;28;20192;-46
2023/01/31 04:09:45;;;;;;;15.40;3.47;;;;;;;;;;5053209;28;20252;-45
2023/01/31 04:12:14;;;;;;;10.85;3.08;;;;;;;;;;5052771;28;20210;-45
2023/01/31 04:14:40;;;;;;;16.00;3.58;;;;;;;;;;5052468;28;20186;-45
2023/01/31 04:17:06;;;;;;;17.73;3.63;;;;;;;;;;5052486;28;20231;-45
2023/01/31 04:19:31;;;;;;;12.03;3.40;;;;;;;;;;5052658;28;20398;-44
2023/01/31 04:21:57;;;;;;;10.07;3.30;;;;;;;;;;5052545;28;20410;-45
2023/01/31 04:24:23;;;;;;;11.07;3.37;;;;;;;;;;5052413;28;20402;-45
2023/01/31 04:26:49;;;;;;;11.13;5.30;;;;;;;;;;5052424;28;20509;-45
2023/01/31 04:29:15;;;;;;;20.90;5.13;;;;;;;;;;5052210;28;20453;-45
2023/01/31 04:31:41;;;;;;;13.97;3.27;;;;;;;;;;5052245;28;20433;-44
2023/01/31 04:34:07;;;;;;;8.73;3.03;;;;;;;;;;5052344;28;20408;-45
2023/01/31 04:36:33;;;;;;;9.40;3.38;;;;;;;;;;5052108;28;20417;-45
2023/01/31 04:38:59;;;;;;;5.50;3.73;;;;;;;;;;5052451;28;20293;-44
2023/01/31 04:41:25;;;;;;;13.40;3.53;;;;;;;;;;5052087;28;20432;-45
2023/01/31 04:43:52;;;;;;;9.13;2.72;;;;;;;;;;5052190;28;20405;-45
2023/01/31 04:46:18;;;;;;;13.18;3.70;;;;;;;;;;5051501;28;20183;-45
2023/01/31 04:48:44;;;;;;;9.93;3.70;;;;;;;;;;5052032;28;20163;-44
2023/01/31 04:51:10;;;;;;;10.37;4.23;;;;;;;;;;5052099;28;20190;-44
2023/01/31 04:53:38;;;;;;;17.90;4.27;;;;;;;;;;5052238;28;20535;-44
2023/01/31 04:56:04;;;;;;;10.27;4.75;;;;;;;;;;5051497;28;20421;-44
2023/01/31 04:58:30;;;;;;;8.80;4.35;;;;;;;;;;5051706;28;20190;-44
2023/01/31 05:00:57;;;;;;;14.50;4.90;;;;;;;;;;5051843;28;20175;-45
2023/01/31 05:03:23;;;;;;;12.30;4.38;;;;;;;;;;5051772;28;20201;-45
2023/01/31 05:05:50;;;;;;;16.63;5.45;;;;;;;;;;5051516;28;20187;-45
2023/01/31 05:08:16;;;;;;;19.73;5.10;;;;;;;;;;5051623;28;20171;-44
2023/01/31 05:10:42;;;;;;;13.10;3.67;;;;;;;;;;5051596;28;20198;-45
2023/01/31 05:13:08;;;;;;;26.48;4.78;;;;;;;;;;5051628;28;20405;-45
2023/01/31 05:15:34;;;;;;;18.40;4.97;;;;;;;;;;5051367;28;20201;-45
2023/01/31 05:18:04;;;;;;;16.58;5.40;;;;;;;;;;5051784;28;20188;-45
2023/01/31 05:20:31;;;;;;;25.17;5.63;;;;;;;;;;5051425;28;20195;-45
2023/01/31 05:22:57;;;;;;;23.63;8.27;;;;;;;;;;5051585;28;20178;-45
2023/01/31 05:25:23;;;;;;;12.30;5.45;;;;;;;;;;5051074;28;20194;-45
2023/01/31 05:27:49;;;;;;;17.25;5.05;;;;;;;;;;5051303;28;20596;-45
2023/01/31 05:30:15;;;;;;;10.13;6.00;;;;;;;;;;5051323;28;20611;-45
2023/01/31 05:32:44;;;;;;;19.67;5.50;;;;;;;;;;5051551;28;20163;-44
2023/01/31 05:35:10;;;;;;;16.67;6.07;;;;;;;;;;5053026;28;20409;-44
2023/01/31 05:37:36;;;;;;;14.43;5.33;;;;;;;;;;5058077;28;20177;-44
2023/01/31 05:40:02;;;;;;;22.30;5.47;;;;;;;;;;5057935;28;20454;-45
2023/01/31 05:42:28;;;;;;;24.17;6.87;;;;;;;;;;5057908;28;20405;-45
2023/01/31 05:44:54;;;;;;;26.07;6.47;;;;;;;;;;5057707;28;20404;-45
2023/01/31 05:47:22;;;;;;;14.47;5.13;;;;;;;;;;5057490;28;20487;-45
2023/01/31 05:49:48;;;;;;;22.23;6.78;;;;;;;;;;5056542;28;20978;-45
2023/01/31 05:52:14;;;;;;;22.37;6.57;;;;;;;;;;5056872;28;20170;-45
2023/01/31 05:54:40;;;;;;;38.40;6.73;;;;;;;;;;5056586;28;20429;-45
2023/01/31 05:57:07;;;;;;;13.43;6.93;;;;;;;;;;5056837;28;20421;-45
2023/01/31 05:59:33;;;;;;;14.63;5.82;;;;;;;;;;5056798;28;20406;-45
2023/01/31 06:01:58;;;;;;;15.30;5.90;;;;;;;;;;5057437;28;20704;-45
2023/01/31 06:04:24;;;;;;;16.53;6.20;;;;;;;;;;5057509;28;20789;-45
2023/01/31 06:06:50;;;;;;;15.63;5.40;;;;;;;;;;5057306;28;20449;-44
2023/01/31 06:09:16;;;;;;;21.33;5.57;;;;;;;;;;5057650;28;20469;-45
2023/01/31 06:11:43;;;;;;;16.45;6.40;;;;;;;;;;5057522;28;20444;-44
2023/01/31 06:14:09;;;;;;;21.27;7.28;;;;;;;;;;5057026;28;20167;-45
2023/01/31 06:16:35;;;;;;;17.13;6.37;;;;;;;;;;5057838;28;20186;-45
2023/01/31 06:19:01;;;;;;;13.70;6.15;;;;;;;;;;5057632;28;20405;-45
2023/01/31 06:21:27;;;;;;;14.60;7.10;;;;;;;;;;5057628;28;20198;-45
2023/01/31 06:23:53;;;;;;;12.13;6.25;;;;;;;;;;5057785;28;20168;-45
2023/01/31 06:26:19;;;;;;;28.33;8.57;;;;;;;;;;5057394;28;20220;-45
2023/01/31 06:28:45;;;;;;;15.75;6.65;;;;;;;;;;5057856;28;20443;-45
2023/01/31 06:31:12;;;;;;;21.97;7.50;;;;;;;;;;5055985;28;20210;-45
2023/01/31 06:33:38;;;;;;;20.77;6.57;;;;;;;;;;5057419;28;20401;-45
2023/01/31 06:36:04;;;;;;;12.55;6.72;;;;;;;;;;5056938;28;20189;-45
2023/01/31 06:38:30;;;;;;;17.88;6.13;;;;;;;;;;5054768;28;20236;-45
2023/01/31 06:40:56;;;;;;;14.07;5.90;;;;;;;;;;5056819;28;20848;-45
2023/01/31 06:43:22;;;;;;;12.13;5.50;;;;;;;;;;5057181;28;20492;-45
2023/01/31 06:45:48;;;;;;;24.90;7.30;;;;;;;;;;5048525;28;20472;-45
2023/01/31 06:48:14;;;;;;;8.83;5.00;;;;;;;;;;5047963;28;20184;-45
2023/01/31 06:50:41;;;;;;;13.32;5.40;;;;;;;;;;5049967;28;20453;-44
2023/01/31 06:53:07;;;;;;;17.45;5.28;;;;;;;;;;5046277;28;20217;-44
2023/01/31 06:55:33;;;;;;;16.87;6.20;;;;;;;;;;5045509;28;20222;-45
2023/01/31 06:57:59;;;;;;;18.58;6.72;;;;;;;;;;5045401;28;20457;-45
2023/01/31 07:00:25;;;;;;;16.85;6.25;;;;;;;;;;5046630;28;20187;-44
2023/01/31 07:02:52;;;;;;;25.83;6.90;;;;;;;;;;5045408;28;20203;-44
2023/01/31 07:05:18;;;;;;;27.08;7.57;;;;;;;;;;5047757;28;20282;-44
2023/01/31 07:07:44;;;;;;;21.45;6.20;;;;;;;;;;5050156;28;20179;-44
2023/01/31 07:10:11;;;;;;;19.45;6.82;;;;;;;;;;5046059;28;20202;-44
2023/01/31 07:12:36;;;;;;;17.67;6.05;;;;;;;;;;5045331;28;20171;-44
2023/01/31 07:15:02;;;;;;;20.93;6.83;;;;;;;;;;5044963;28;20265;-44
2023/01/31 07:17:29;;;;;;;19.45;6.30;;;;;;;;;;5045258;28;20420;-44
2023/01/31 07:19:54;;;;;;;42.00;8.85;;;;;;;;;;5044986;28;20266;-44
2023/01/31 07:22:20;;;;;;;23.40;6.40;;;;;;;;;;5047708;28;20275;-44
2023/01/31 07:24:49;;;;;;;20.93;6.73;;;;;;;;;;5049550;28;20414;-44
2023/01/31 07:27:15;;;;;;;18.17;7.05;;;;;;;;;;5045569;28;20479;-44
2023/01/31 07:29:42;;;;;;;14.88;6.95;;;;;;;;;;5049621;28;20234;-44
2023/01/31 07:32:08;;;;;;;14.52;5.28;;;;;;;;;;5045702;28;20155;-44
2023/01/31 07:34:34;;;;;;;17.80;7.00;;;;;;;;;;5044402;28;20183;-44
2023/01/31 07:37:00;;;;;;;21.30;6.23;;;;;;;;;;5026862;28;20442;-44
2023/01/31 07:39:26;;;;;;;22.00;7.13;;;;;;;;;;5053043;28;20448;-44
2023/01/31 07:41:52;;;;;;;18.85;7.53;;;;;;;;;;5044540;28;20786;-45
2023/01/31 07:44:18;;;;;;;18.45;6.40;;;;;;;;;;5047324;28;20175;-45
2023/01/31 07:46:44;;;;;;;12.47;6.40;;;;;;;;;;5049248;28;20285;-44
2023/01/31 07:49:10;;;;;;;16.63;6.57;;;;;;;;;;5045468;28;20476;-45
2023/01/31 07:51:37;;;;;;;21.52;7.65;;;;;;;;;;5044608;28;20409;-45
2023/01/31 07:54:03;;;;;;;26.50;7.72;;;;;;;;;;5043484;28;20701;-43
2023/01/31 07:56:29;;;;;;;31.38;6.40;;;;;;;;;;5044329;28;20214;-42
2023/01/31 07:58:55;;;;;;;19.03;6.20;;;;;;;;;;5043824;28;20187;-44
2023/01/31 08:04:09;;;;;;;21.75;6.10;;;;;;;;;;5040878;28;20410;-44
2023/01/31 08:06:35;;;;;;;22.45;6.43;;;;;;;;;;5048622;28;20206;-44
2023/01/31 08:09:01;;;;;;;17.65;5.30;;;;;;;;;;5040981;28;20206;-44
2023/01/31 08:11:27;;;;;;;20.77;5.87;;;;;;;;;;5047423;28;20175;-44
2023/01/31 08:13:53;;;;;;;28.58;8.43;;;;;;;;;;5043883;28;20444;-44
2023/01/31 08:16:19;;;;;;;22.17;5.60;;;;;;;;;;5043865;28;20706;-45
2023/01/31 08:18:46;;;;;;;14.30;5.40;;;;;;;;;;5044012;28;20184;-44
2023/01/31 08:21:12;;;;;;;17.98;5.70;;;;;;;;;;5048999;28;20194;-44
2023/01/31 08:23:39;;;;;;;13.95;4.97;;;;;;;;;;5044099;28;20183;-42
2023/01/31 08:26:09;;;;;;;13.23;5.28;;;;;;;;;;5047967;28;20286;-42
2023/01/31 08:28:35;;;;;;;16.48;5.57;;;;;;;;;;5047965;28;20572;-44
2023/01/31 08:31:01;;;;;;;15.30;5.68;;;;;;;;;;5043754;28;20195;-44
2023/01/31 08:33:27;;;;;;;16.63;5.93;;;;;;;;;;5044003;28;20167;-45
2023/01/31 08:35:53;;;;;;;14.63;5.20;;;;;;;;;;5043440;28;20352;-45
2023/01/31 08:38:19;;;;;;;12.20;4.97;;;;;;;;;;5043675;28;20409;-45
2023/01/31 08:40:45;;;;;;;20.60;5.00;;;;;;;;;;5051982;28;20177;-44
2023/01/31 08:43:11;;;;;;;13.43;4.93;;;;;;;;;;5051487;28;20605;-45
2023/01/31 08:45:37;;;;;;;20.97;5.47;;;;;;;;;;5049792;28;20523;-45
2023/01/31 08:48:03;;;;;;;14.10;5.10;;;;;;;;;;5033114;28;20414;-47
2023/01/31 08:50:30;;;;;;;12.82;5.30;;;;;;;;;;5051428;28;20453;-42
2023/01/31 08:52:58;;;;;;;20.42;5.63;;;;;;;;;;5051791;28;20170;-47
2023/01/31 08:55:24;;;;;;;13.55;5.22;;;;;;;;;;5051232;28;20186;-49
2023/01/31 08:57:51;;;;;;;14.10;4.63;;;;;;;;;;5051475;28;20681;-45
2023/01/31 09:00:17;;;;;;;12.82;4.80;;;;;;;;;;5051818;28;20170;-45
2023/01/31 09:02:45;;;;;;;17.38;6.20;;;;;;;;;;5051698;28;20186;-46
2023/01/31 09:05:11;;;;;;;21.55;5.80;;;;;;;;;;5051349;28;20262;-48
2023/01/31 09:07:37;;;;;;;13.68;4.82;;;;;;;;;;5051750;28;20209;-45
2023/01/31 09:10:03;;;;;;;18.45;5.45;;;;;;;;;;5051146;28;20206;-44
2023/01/31 09:12:29;;;;;;;10.73;4.70;;;;;;;;;;5047126;28;20194;-44
2023/01/31 09:14:55;;;;;;;12.10;4.30;;;;;;;;;;5050371;28;20164;-42
2023/01/31 09:17:21;;;;;;;16.13;5.25;;;;;;;;;;5043545;28;20797;-42
2023/01/31 09:19:48;;;;;;;17.37;4.70;;;;;;;;;;5048693;28;20244;-48
2023/01/31 09:22:14;;;;;;;12.85;5.18;;;;;;;;;;5042955;28;20417;-42
2023/01/31 09:24:40;;;;;;;11.27;4.87;;;;;;;;;;5042653;28;20293;-45
2023/01/31 09:27:06;;;;;;;5.63;3.53;;;;;;;;;;5047206;28;20584;-42
2023/01/31 09:29:32;;;;;;;8.90;5.13;;;;;;;;;;5046789;28;20468;-45
2023/01/31 09:31:58;;;;;;;7.32;3.67;;;;;;;;;;5044232;28;21317;-44
2023/01/31 09:34:24;;;;;;;13.43;4.60;;;;;;;;;;5045417;28;20159;-44
2023/01/31 09:36:50;;;;;;;13.30;4.03;;;;;;;;;;5051185;28;20246;-44
2023/01/31 09:39:16;;;;;;;8.10;3.40;;;;;;;;;;5051358;28;20585;-45
2023/01/31 09:41:53;;;;;;;15.30;5.27;;;;;;;;;;5051003;28;20405;-44
2023/01/31 09:44:22;;;;;;;11.52;4.13;;;;;;;;;;5051156;28;20416;-44
2023/01/31 09:47:07;;;;;;;13.68;4.30;;;;;;;;;;5051076;28;20205;-43
2023/01/31 09:49:40;;;;;;;19.67;4.35;;;;;;;;;;5051588;28;20200;-43
2023/01/31 09:52:06;;;;;;;11.98;4.20;;;;;;;;;;5050888;28;20182;-45
2023/01/31 09:54:34;;;;;;;17.70;5.33;;;;;;;;;;5050827;28;20168;-45
2023/01/31 09:57:12;;;;;;;11.90;4.88;;;;;;;;;;5050655;28;20537;-42
2023/01/31 09:59:57;;;;;;;13.57;4.00;;;;;;;;;;5051158;28;20179;-48
2023/01/31 10:02:42;;;;;;;6.85;4.00;;;;;;;;;;5049603;28;20327;-44
2023/01/31 10:05:10;;;;;;;7.95;4.00;;;;;;;;;;5050807;28;20284;-43
2023/01/31 10:07:41;;;;;;;8.43;3.83;;;;;;;;;;5051267;28;20171;-44
2023/01/31 10:10:27;;;;;;;12.77;4.93;;;;;;;;;;5050848;28;20200;-45
2023/01/31 10:12:56;;;;;;;16.10;4.50;;;;;;;;;;5049913;28;20171;-45
2023/01/31 10:15:22;;;;;;;16.90;4.40;;;;;;;;;;5050683;28;20179;-45
2023/01/31 10:17:52;;;;;;;18.10;4.25;;;;;;;;;;5050983;28;20163;-45
2023/01/31 10:20:18;;;;;;;7.70;4.30;;;;;;;;;;5050798;28;20655;-44
2023/01/31 10:22:47;;;;;;;8.68;3.35;;;;;;;;;;5053922;28;20650;-43
2023/01/31 10:25:33;;;;;;;11.45;5.45;;;;;;;;;;5053761;28;20554;-46
2023/01/31 10:28:11;;;;;;;20.25;4.50;;;;;;;;;;5054796;28;20163;-44
2023/01/31 10:30:49;;;;;;;15.02;5.35;;;;;;;;;;5054302;28;20211;-44
2023/01/31 10:33:26;;;;;;;17.65;4.72;;;;;;;;;;5054501;28;20171;-45
2023/01/31 10:35:54;;;;;;;21.83;6.75;;;;;;;;;;5054373;28;20258;-42
2023/01/31 10:38:29;;;;;;;15.25;5.90;;;;;;;;;;5054769;28;20159;-44
2023/01/31 10:41:01;;;;;;;14.15;6.45;;;;;;;;;;5053480;28;20233;-44
2023/01/31 10:43:33;;;;;;;9.55;4.25;;;;;;;;;;5053710;28;20175;-44
2023/01/31 10:46:00;;;;;;;16.77;5.53;;;;;;;;;;5053808;28;20576;-43
2023/01/31 10:48:28;;;;;;;18.73;4.65;;;;;;;;;;5053928;28;20240;-44
2023/01/31 10:50:57;;;;;;;11.15;4.90;;;;;;;;;;5053975;28;20210;-45
2023/01/31 10:53:42;;;;;;;9.38;4.90;;;;;;;;;;5054250;28;20177;-44
2023/01/31 10:56:29;;;;;;;9.50;5.13;;;;;;;;;;5053700;28;20674;-44
2023/01/31 10:58:56;;;;;;;5.55;4.22;;;;;;;;;;5054007;28;20303;-44
2023/01/31 11:01:22;;;;;;;15.75;5.10;;;;;;;;;;5053496;28;20171;-46
2023/01/31 11:03:49;;;;;;;9.97;4.97;;;;;;;;;;5035485;28;20175;-42
2023/01/31 11:06:15;;;;;;;12.73;5.90;;;;;;;;;;5053145;28;20479;-44
2023/01/31 11:08:56;;;;;;;9.00;4.40;;;;;;;;;;5053280;28;20250;-44
2023/01/31 11:11:22;;;;;;;12.45;4.72;;;;;;;;;;5053425;28;20197;-44
2023/01/31 11:13:56;;;;;;;10.05;4.57;;;;;;;;;;5053183;28;20163;-45
2023/01/31 11:16:23;;;;;;;8.65;5.57;;;;;;;;;;5052863;28;20183;-44
2023/01/31 11:18:50;;;;;;;6.93;5.28;;;;;;;;;;5052690;28;20185;-44
2023/01/31 11:21:26;;;;;;;10.57;4.82;;;;;;;;;;5052645;28;20163;-45
2023/01/31 11:23:54;;;;;;;12.13;5.05;;;;;;;;;;5053038;28;20163;-45
2023/01/31 11:26:29;;;;;;;7.80;5.30;;;;;;;;;;5052459;28;20195;-45
2023/01/31 11:28:55;;;;;;;16.10;5.90;;;;;;;;;;5052920;28;20201;-45
2023/01/31 11:31:27;;;;;;;15.15;6.07;;;;;;;;;;5051763;28;20167;-45
2023/01/31 11:33:56;;;;;;;14.93;6.40;;;;;;;;;;5050782;28;20238;-45
2023/01/31 11:36:23;;;;;;;17.92;5.90;;;;;;;;;;5053175;28;20690;-45
2023/01/31 11:38:49;;;;;;;15.90;5.22;;;;;;;;;;5053492;28;20649;-45
2023/01/31 11:41:27;;;;;;;9.00;5.70;;;;;;;;;;5053064;28;20628;-48
2023/01/31 11:44:20;;;;;;;13.10;5.63;;;;;;;;;;5051878;28;20209;-43
2023/01/31 11:46:45;;;;;;;20.65;6.90;;;;;;;;;;5047394;28;20945;-46
2023/01/31 11:49:13;;;;;;;13.00;6.30;;;;;;;;;;5052944;28;20199;-43
2023/01/31 11:51:39;;;;;;;12.68;6.70;;;;;;;;;;5053122;28;20404;-45
2023/01/31 11:54:06;;;;;;;11.30;6.30;;;;;;;;;;5052634;28;20191;-42
2023/01/31 11:56:35;;;;;;;20.20;6.28;;;;;;;;;;5052784;28;20202;-45
2023/01/31 11:59:04;;;;;;;9.95;6.72;;;;;;;;;;5052701;28;20332;-45
2023/01/31 12:01:31;;;;;;;20.80;7.75;;;;;;;;;;5052705;28;20225;-45
2023/01/31 12:04:00;;;;;;;11.15;6.50;;;;;;;;;;5052823;28;20243;-46
2023/01/31 12:06:27;;;;;;;15.10;6.30;;;;;;;;;;5052273;28;20189;-45
2023/01/31 12:08:53;;;;;;;10.50;6.35;;;;;;;;;;5052787;28;20237;-48
2023/01/31 12:11:19;;;;;;;27.60;7.43;;;;;;;;;;5052530;28;20171;-46
2023/01/31 12:13:53;;;;;;;14.63;7.47;;;;;;;;;;5052397;28;20662;-48
2023/01/31 12:16:29;;;;;;;15.20;7.20;;;;;;;;;;5052381;28;20417;-44
2023/01/31 12:18:59;;;;;;;17.15;7.18;;;;;;;;;;5052368;28;20174;-45
2023/01/31 12:21:34;;;;;;;14.45;6.00;;;;;;;;;;5051451;28;20630;-47
2023/01/31 12:24:06;;;;;;;17.92;8.73;;;;;;;;;;5052146;28;20190;-42
2023/01/31 12:26:58;;;;;;;11.02;6.80;;;;;;;;;;5052298;28;20211;-44
2023/01/31 12:29:37;;;;;;;21.10;7.68;;;;;;;;;;5047721;28;20206;-49
2023/01/31 12:32:09;;;;;;;17.27;7.33;;;;;;;;;;5052225;28;20197;-46
2023/01/31 12:34:38;;;;;;;10.90;7.53;;;;;;;;;;5051901;28;20696;-44
2023/01/31 12:37:23;;;;;;;17.08;7.50;;;;;;;;;;5052129;28;20586;-46
2023/01/31 12:40:01;;;;;;;22.40;8.95;;;;;;;;;;5052215;28;20254;-46
2023/01/31 12:42:33;;;;;;;16.60;8.35;;;;;;;;;;5052020;28;20196;-44
2023/01/31 12:44:59;;;;;;;11.52;7.35;;;;;;;;;;5050661;28;20592;-45
2023/01/31 12:47:43;;;;;;;18.60;8.67;;;;;;;;;;5052140;28;20182;-44
2023/01/31 12:50:21;;;;;;;11.82;8.32;;;;;;;;;;5051825;28;20457;-47
2023/01/31 12:52:47;;;;;;;18.98;7.32;;;;;;;;;;5052407;28;20197;-47
2023/01/31 12:55:19;;;;;;;18.50;8.60;;;;;;;;;;5051292;28;20217;-43
2023/01/31 12:57:57;;;;;;;16.77;7.68;;;;;;;;;;5051747;28;20928;-44
2023/01/31 13:00:29;;;;;;;15.83;8.90;;;;;;;;;;5051615;28;20184;-46
2023/01/31 13:03:08;;;;;;;15.35;6.85;;;;;;;;;;5051691;28;20444;-47
2023/01/31 13:05:34;;;;;;;14.82;7.82;;;;;;;;;;5051101;28;20232;-46
2023/01/31 13:08:10;;;;;;;19.38;8.35;;;;;;;;;;5051634;28;20551;-42
2023/01/31 13:10:40;;;;;;;17.60;8.20;;;;;;;;;;5051364;28;20326;-44
2023/01/31 13:13:10;;;;;;;14.33;8.37;;;;;;;;;;5053131;28;20171;-44
2023/01/31 13:15:44;;;;;;;13.13;7.80;;;;;;;;;;5051055;28;20452;-44
2023/01/31 13:18:12;;;;;;;11.50;8.82;;;;;;;;;;5051189;28;20178;-42
2023/01/31 13:20:42;;;;;;;18.70;6.90;;;;;;;;;;5051429;28;20540;-42
2023/01/31 13:23:19;;;;;;;17.52;8.77;;;;;;;;;;5051591;28;20254;-44
2023/01/31 13:25:54;;;;;;;19.60;9.85;;;;;;;;;;5050959;28;20191;-44
2023/01/31 13:28:30;;;;;;;14.15;9.30;;;;;;;;;;5051471;28;20278;-42
2023/01/31 13:30:57;;;;;;;19.88;10.52;;;;;;;;;;5051076;28;20286;-42
2023/01/31 13:33:23;;;;;;;16.63;9.30;;;;;;;;;;5051343;28;20631;-45
2023/01/31 13:35:55;;;;;;;15.90;8.90;;;;;;;;;;5050900;28;20943;-44
2023/01/31 13:38:21;;;;;;;16.83;11.50;;;;;;;;;;5051181;28;20397;-45
2023/01/31 13:40:51;;;;;;;15.65;9.15;;;;;;;;;;5051732;28;20250;-45
2023/01/31 13:43:18;;;;;;;19.92;11.52;;;;;;;;;;5051052;28;20236;-43
2023/01/31 13:45:47;;;;;;;27.15;11.80;;;;;;;;;;5050879;28;20221;-45
2023/01/31 13:48:23;;;;;;;19.67;11.63;;;;;;;;;;5051238;28;20253;-46
2023/01/31 13:50:59;;;;;;;27.17;11.18;;;;;;;;;;5050896;28;20202;-45
2023/01/31 13:53:33;;;;;;;14.93;9.30;;;;;;;;;;5050587;28;20167;-43
2023/01/31 13:56:00;;;;;;;13.52;10.98;;;;;;;;;;5051105;28;20186;-42
2023/01/31 13:58:30;;;;;;;18.42;9.75;;;;;;;;;;5055074;28;20650;-42
2023/01/31 14:00:58;;;;;;;20.65;10.98;;;;;;;;;;5054749;28;20182;-44
2023/01/31 14:03:24;;;;;;;19.58;10.63;;;;;;;;;;5054933;28;20206;-45
2023/01/31 14:05:52;;;;;;;18.10;10.32;;;;;;;;;;5054763;28;20273;-43
2023/01/31 14:08:27;;;;;;;16.00;11.38;;;;;;;;;;5055152;28;20171;-45
2023/01/31 14:10:57;;;;;;;33.00;15.68;;;;;;;;;;5054938;28;20205;-41
2023/01/31 14:13:29;;;;;;;14.18;10.00;;;;;;;;;;5055062;28;20163;-44
2023/01/31 14:15:56;;;;;;;15.02;10.68;;;;;;;;;;5054790;28;20692;-44
2023/01/31 14:18:40;;;;;;;15.50;10.63;;;;;;;;;;5054862;28;20217;-45
2023/01/31 14:21:25;;;;;;;16.45;11.55;;;;;;;;;;5054919;28;20173;-42
2023/01/31 14:23:50;;;;;;;16.40;9.70;;;;;;;;;;5054600;28;20217;-42
2023/01/31 14:26:31;;;;;;;16.93;10.80;;;;;;;;;;5054822;28;20218;-45
2023/01/31 14:28:57;;;;;;;21.85;10.90;;;;;;;;;;5054488;28;20401;-42
2023/01/31 14:31:24;;;;;;;14.48;11.45;;;;;;;;;;5054505;28;20570;-45
2023/01/31 14:33:52;;;;;;;13.48;10.98;;;;;;;;;;5054601;28;20201;-44
2023/01/31 14:36:26;;;;;;;15.87;11.20;;;;;;;;;;5054176;28;20185;-46
2023/01/31 14:39:10;;;;;;;15.43;11.73;;;;;;;;;;5054500;28;20397;-42
2023/01/31 14:42:00;;;;;;;20.13;12.20;;;;;;;;;;5054005;28;20170;-46
2023/01/31 14:44:37;;;;;;;15.50;11.65;;;;;;;;;;5053949;28;20210;-48
2023/01/31 14:47:08;;;;;;;21.02;13.30;;;;;;;;;;5054312;28;20654;-47
2023/01/31 14:49:55;;;;;;;20.83;11.55;;;;;;;;;;5054106;28;20198;-48